createdAt,value
2018-04-18T00:00:55.556Z,6.88
2018-04-18T00:02:01.198Z,6.90
2018-04-18T00:03:07.385Z,6.89
2018-04-18T00:04:13.536Z,6.95
2018-04-18T00:05:19.697Z,6.95
2018-04-18T00:06:26.391Z,6.92
2018-04-18T00:07:32.086Z,6.93
2018-04-18T00:08:38.712Z,6.94
2018-04-18T00:09:44.369Z,6.95
2018-04-18T00:10:51.031Z,6.98
2018-04-18T00:11:57.213Z,6.98
2018-04-18T00:13:03.400Z,6.94
2018-04-18T00:14:09.547Z,6.89
2018-04-18T00:15:15.704Z,6.86
2018-04-18T00:16:21.376Z,6.85
2018-04-18T00:17:28.060Z,6.80
2018-04-18T00:18:33.690Z,6.85
2018-04-18T00:19:40.352Z,6.86
2018-04-18T00:20:46.522Z,6.92
2018-04-18T00:21:52.687Z,6.93
2018-04-18T00:22:58.381Z,6.91
2018-04-18T00:24:04.513Z,6.91
2018-04-18T00:25:10.676Z,6.89
2018-04-18T00:26:17.346Z,6.90
2018-04-18T00:27:23.512Z,6.90
2018-04-18T00:28:29.172Z,6.87
2018-04-18T00:29:35.834Z,6.83
2018-04-18T00:30:41.985Z,6.77
2018-04-18T00:31:48.152Z,6.67
2018-04-18T00:32:53.841Z,6.64
2018-04-18T00:33:59.969Z,6.66
2018-04-18T00:35:06.629Z,6.70
2018-04-18T00:36:12.401Z,6.74
2018-04-18T00:37:19.017Z,6.68
2018-04-18T00:38:25.133Z,6.62
2018-04-18T00:39:30.785Z,6.62
2018-04-18T00:40:37.478Z,6.66
2018-04-18T00:41:43.603Z,6.67
2018-04-18T00:42:49.279Z,6.61
2018-04-18T00:43:56.422Z,6.54
2018-04-18T00:45:02.074Z,6.53
2018-04-18T00:46:08.235Z,6.55
2018-04-18T00:47:14.399Z,6.55
2018-04-18T00:48:20.069Z,6.56
2018-04-18T00:49:26.213Z,6.60
2018-04-18T00:50:32.852Z,6.60
2018-04-18T00:51:39.011Z,6.59
2018-04-18T00:52:45.189Z,6.56
2018-04-18T00:53:50.832Z,6.52
2018-04-18T00:54:57.492Z,6.49
2018-04-18T00:56:03.635Z,6.44
2018-04-18T00:57:09.793Z,6.37
2018-04-18T00:58:15.496Z,6.36
2018-04-18T00:59:22.124Z,6.34
2018-04-18T01:00:27.766Z,6.31
2018-04-18T01:01:33.917Z,6.33
2018-04-18T01:02:40.105Z,6.33
2018-04-18T01:03:46.731Z,6.39
2018-04-18T01:04:52.400Z,6.40
2018-04-18T01:05:58.538Z,6.38
2018-04-18T01:07:05.188Z,6.33
2018-04-18T01:08:10.866Z,6.33
2018-04-18T01:09:17.489Z,6.36
2018-04-18T01:10:23.145Z,6.32
2018-04-18T01:11:29.293Z,6.28
2018-04-18T01:12:35.464Z,6.32
2018-04-18T01:13:42.096Z,6.38
2018-04-18T01:14:47.753Z,6.42
2018-04-18T01:15:54.402Z,6.40
2018-04-18T01:17:00.546Z,6.32
2018-04-18T01:18:06.728Z,6.28
2018-04-18T01:19:12.342Z,6.28
2018-04-18T01:20:18.996Z,6.26
2018-04-18T01:21:24.650Z,6.20
2018-04-18T01:22:31.302Z,6.14
2018-04-18T01:23:36.970Z,6.10
2018-04-18T01:24:43.603Z,6.07
2018-04-18T01:25:49.755Z,6.05
2018-04-18T01:26:55.397Z,6.03
2018-04-18T01:28:01.570Z,6.06
2018-04-18T01:29:08.179Z,6.11
2018-04-18T01:30:14.395Z,6.11
2018-04-18T01:31:20.476Z,6.09
2018-04-18T01:32:26.633Z,6.04
2018-04-18T01:33:32.299Z,6.01
2018-04-18T01:34:38.919Z,5.99
2018-04-18T01:35:45.063Z,5.98
2018-04-18T01:36:50.722Z,5.95
2018-04-18T01:37:56.881Z,5.92
2018-04-18T01:39:03.012Z,5.94
2018-04-18T01:40:09.159Z,5.95
2018-04-18T01:41:15.798Z,5.93
2018-04-18T01:42:21.449Z,5.93
2018-04-18T01:43:28.114Z,5.94
2018-04-18T01:44:34.246Z,5.98
2018-04-18T01:45:40.405Z,5.99
2018-04-18T01:46:46.532Z,6.03
2018-04-18T01:47:52.202Z,6.05
2018-04-18T01:48:58.394Z,6.11
2018-04-18T01:50:04.953Z,6.04
2018-04-18T01:51:10.792Z,5.96
2018-04-18T01:52:17.240Z,5.92
2018-04-18T01:53:23.411Z,5.95
2018-04-18T01:54:29.570Z,5.97
2018-04-18T01:55:35.667Z,5.98
2018-04-18T01:56:41.326Z,5.95
2018-04-18T01:57:48.002Z,5.91
2018-04-18T01:58:54.103Z,5.87
2018-04-18T02:00:00.249Z,5.88
2018-04-18T02:01:06.385Z,5.86
2018-04-18T02:02:12.514Z,5.81
2018-04-18T02:03:18.672Z,5.75
2018-04-18T02:04:24.385Z,5.67
2018-04-18T02:05:30.932Z,5.66
2018-04-18T02:06:36.574Z,5.61
2018-04-18T02:07:42.768Z,5.60
2018-04-18T02:08:48.894Z,5.57
2018-04-18T02:09:55.498Z,5.59
2018-04-18T02:11:01.642Z,5.64
2018-04-18T02:12:07.767Z,5.68
2018-04-18T02:13:13.430Z,5.67
2018-04-18T02:14:20.035Z,5.63
2018-04-18T02:15:26.175Z,5.58
2018-04-18T02:16:32.374Z,5.50
2018-04-18T02:17:38.457Z,5.46
2018-04-18T02:18:44.616Z,5.43
2018-04-18T02:19:50.739Z,5.42
2018-04-18T02:20:56.366Z,5.40
2018-04-18T02:22:02.998Z,5.44
2018-04-18T02:23:09.157Z,5.48
2018-04-18T02:24:14.784Z,5.42
2018-04-18T02:25:21.411Z,5.44
2018-04-18T02:26:27.555Z,5.49
2018-04-18T02:27:33.678Z,5.52
2018-04-18T02:28:39.844Z,5.56
2018-04-18T02:29:45.459Z,5.47
2018-04-18T02:30:51.597Z,5.49
2018-04-18T02:31:58.239Z,5.52
2018-04-18T02:33:04.398Z,5.53
2018-04-18T02:34:10.508Z,5.57
2018-04-18T02:35:16.627Z,5.59
2018-04-18T02:36:22.763Z,5.54
2018-04-18T02:37:28.405Z,5.45
2018-04-18T02:38:34.621Z,5.41
2018-04-18T02:39:41.173Z,5.44
2018-04-18T02:40:47.288Z,5.40
2018-04-18T02:41:53.420Z,5.37
2018-04-18T02:42:59.081Z,5.39
2018-04-18T02:44:05.199Z,5.44
2018-04-18T02:45:12.813Z,5.49
2018-04-18T02:46:17.966Z,5.54
2018-04-18T02:47:24.086Z,5.56
2018-04-18T02:48:30.236Z,5.55
2018-04-18T02:49:35.846Z,5.50
2018-04-18T02:50:41.994Z,5.43
2018-04-18T02:51:48.619Z,5.44
2018-04-18T02:52:54.755Z,5.43
2018-04-18T02:54:00.869Z,5.42
2018-04-18T02:55:06.505Z,5.40
2018-04-18T02:56:12.628Z,5.36
2018-04-18T02:57:19.274Z,5.35
2018-04-18T02:58:24.915Z,5.33
2018-04-18T02:59:31.037Z,5.30
2018-04-18T03:00:37.664Z,5.25
2018-04-18T03:01:43.293Z,5.25
2018-04-18T03:02:49.425Z,5.33
2018-04-18T03:03:56.077Z,5.41
2018-04-18T03:05:02.180Z,5.36
2018-04-18T03:06:07.813Z,5.26
2018-04-18T03:07:13.954Z,5.22
2018-04-18T03:08:20.597Z,5.40
2018-04-18T03:09:26.209Z,5.39
2018-04-18T03:10:32.338Z,5.25
2018-04-18T03:11:38.466Z,5.11
2018-04-18T03:12:44.591Z,5.02
2018-04-18T03:13:50.749Z,4.92
2018-04-18T03:14:56.850Z,4.92
2018-04-18T03:16:03.473Z,5.06
2018-04-18T03:17:09.121Z,5.14
2018-04-18T03:18:15.268Z,5.14
2018-04-18T03:19:21.378Z,5.08
2018-04-18T03:20:27.530Z,5.01
2018-04-18T03:21:33.650Z,5.03
2018-04-18T03:22:39.756Z,5.01
2018-04-18T03:23:46.407Z,4.97
2018-04-18T03:24:52.012Z,4.91
2018-04-18T03:25:58.624Z,4.92
2018-04-18T03:27:05.763Z,5.00
2018-04-18T03:28:10.913Z,5.02
2018-04-18T03:29:16.859Z,4.99
2018-04-18T03:30:22.640Z,4.94
2018-04-18T03:31:28.776Z,4.96
2018-04-18T03:32:35.379Z,4.97
2018-04-18T03:33:41.521Z,5.00
2018-04-18T03:34:47.141Z,4.92
2018-04-18T03:35:53.774Z,4.99
2018-04-18T03:36:59.393Z,5.08
2018-04-18T03:38:05.523Z,5.09
2018-04-18T03:39:11.623Z,5.11
2018-04-18T03:40:18.260Z,5.06
2018-04-18T03:41:23.867Z,5.01
2018-04-18T03:42:30.493Z,4.93
2018-04-18T03:43:36.135Z,4.89
2018-04-18T03:44:42.242Z,4.85
2018-04-18T03:45:48.845Z,4.77
2018-04-18T03:46:54.482Z,4.69
2018-04-18T03:48:00.601Z,4.71
2018-04-18T03:49:07.233Z,4.66
2018-04-18T03:50:13.342Z,4.61
2018-04-18T03:51:19.461Z,4.60
2018-04-18T03:52:25.566Z,4.65
2018-04-18T03:53:31.217Z,4.70
2018-04-18T03:54:37.824Z,4.73
2018-04-18T03:55:43.440Z,4.73
2018-04-18T03:56:49.560Z,4.72
2018-04-18T03:57:56.175Z,4.74
2018-04-18T03:59:02.409Z,4.81
2018-04-18T04:00:07.909Z,4.82
2018-04-18T04:01:14.042Z,4.81
2018-04-18T04:02:20.144Z,4.83
2018-04-18T04:03:26.281Z,4.82
2018-04-18T04:04:32.877Z,4.82
2018-04-18T04:05:38.502Z,4.80
2018-04-18T04:06:44.624Z,4.81
2018-04-18T04:07:51.229Z,4.82
2018-04-18T04:10:03.459Z,4.79
2018-04-18T04:11:09.088Z,4.83
2018-04-18T04:12:15.684Z,4.90
2018-04-18T04:13:21.339Z,4.89
2018-04-18T04:14:27.932Z,4.84
2018-04-18T04:15:34.039Z,4.80
2018-04-18T04:16:40.164Z,4.79
2018-04-18T04:17:46.379Z,4.79
2018-04-18T04:18:51.920Z,4.81
2018-04-18T04:19:58.509Z,4.75
2018-04-18T04:21:04.940Z,4.73
2018-04-18T04:22:10.259Z,4.72
2018-04-18T04:23:16.853Z,4.70
2018-04-18T04:24:22.505Z,4.70
2018-04-18T04:25:28.601Z,4.69
2018-04-18T04:26:34.714Z,4.73
2018-04-18T04:27:40.835Z,4.71
2018-04-18T04:28:46.969Z,4.70
2018-04-18T04:29:53.557Z,4.67
2018-04-18T04:30:59.176Z,4.57
2018-04-18T04:32:05.781Z,4.52
2018-04-18T04:33:11.902Z,4.59
2018-04-18T04:34:18.055Z,4.54
2018-04-18T04:35:24.379Z,4.49
2018-04-18T04:36:29.759Z,4.52
2018-04-18T04:37:36.377Z,4.60
2018-04-18T04:38:42.503Z,4.69
2018-04-18T04:39:48.605Z,4.77
2018-04-18T04:40:54.217Z,4.78
2018-04-18T04:42:00.904Z,4.83
2018-04-18T04:43:06.961Z,4.90
2018-04-18T04:44:13.100Z,4.89
2018-04-18T04:45:19.181Z,4.85
2018-04-18T04:46:25.302Z,4.82
2018-04-18T04:47:31.420Z,4.79
2018-04-18T04:48:37.523Z,4.78
2018-04-18T04:49:43.672Z,4.84
2018-04-18T04:50:50.387Z,4.83
2018-04-18T04:51:55.911Z,4.80
2018-04-18T04:53:02.011Z,4.81
2018-04-18T04:54:07.657Z,4.86
2018-04-18T04:55:14.247Z,4.89
2018-04-18T04:56:20.381Z,4.92
2018-04-18T04:57:25.997Z,4.91
2018-04-18T04:58:32.605Z,4.90
2018-04-18T04:59:38.265Z,4.91
2018-04-18T05:00:44.855Z,4.98
2018-04-18T05:01:50.975Z,5.01
2018-04-18T05:02:57.095Z,5.08
2018-04-18T05:04:03.233Z,5.07
2018-04-18T05:05:08.870Z,5.10
2018-04-18T05:06:15.476Z,5.15
2018-04-18T05:07:21.600Z,5.17
2018-04-18T05:08:27.219Z,5.23
2018-04-18T05:09:33.893Z,5.28
2018-04-18T05:10:39.982Z,5.32
2018-04-18T05:11:46.113Z,5.37
2018-04-18T05:12:52.228Z,5.43
2018-04-18T05:13:58.374Z,5.51
2018-04-18T05:15:05.507Z,5.58
2018-04-18T05:16:10.634Z,5.57
2018-04-18T05:17:16.765Z,5.53
2018-04-18T05:18:22.878Z,5.56
2018-04-18T05:19:29.047Z,5.57
2018-04-18T05:20:35.148Z,5.63
2018-04-18T05:21:41.299Z,5.66
2018-04-18T05:22:47.414Z,5.75
2018-04-18T05:23:53.553Z,5.82
2018-04-18T05:24:59.207Z,5.92
2018-04-18T05:26:05.323Z,5.95
2018-04-18T05:27:11.957Z,6.02
2018-04-18T05:28:18.096Z,6.02
2018-04-18T05:29:23.755Z,6.09
2018-04-18T05:30:30.377Z,6.13
2018-04-18T05:31:36.017Z,6.10
2018-04-18T05:32:42.659Z,6.04
2018-04-18T05:33:48.399Z,6.06
2018-04-18T05:34:54.961Z,6.11
2018-04-18T05:36:01.089Z,6.18
2018-04-18T05:37:07.234Z,6.21
2018-04-18T05:38:13.385Z,6.22
2018-04-18T05:39:19.515Z,6.23
2018-04-18T05:40:25.713Z,6.28
2018-04-18T05:41:32.380Z,6.35
2018-04-18T05:42:38.470Z,6.43
2018-04-18T05:43:45.111Z,6.50
2018-04-18T05:44:50.290Z,6.55
2018-04-18T05:45:55.936Z,6.59
2018-04-18T05:47:02.592Z,6.63
2018-04-18T05:48:08.751Z,6.69
2018-04-18T05:49:14.392Z,6.78
2018-04-18T05:50:21.094Z,6.78
2018-04-18T05:51:27.198Z,6.70
2018-04-18T05:52:33.361Z,6.63
2018-04-18T05:53:39.510Z,6.60
2018-04-18T05:54:45.688Z,6.64
2018-04-18T05:55:51.830Z,6.71
2018-04-18T05:56:57.988Z,6.76
2018-04-18T05:58:04.151Z,6.81
2018-04-18T05:59:10.378Z,6.89
2018-04-18T06:00:16.500Z,6.95
2018-04-18T06:01:22.662Z,7.03
2018-04-18T06:02:28.830Z,7.07
2018-04-18T06:03:34.974Z,7.07
2018-04-18T06:04:41.160Z,7.12
2018-04-18T06:05:46.826Z,7.21
2018-04-18T06:06:53.489Z,7.33
2018-04-18T06:07:59.649Z,7.48
2018-04-18T06:09:05.341Z,7.62
2018-04-18T06:10:12.009Z,7.77
2018-04-18T06:11:17.718Z,7.86
2018-04-18T06:12:24.385Z,7.95
2018-04-18T06:13:30.023Z,8.03
2018-04-18T06:14:36.226Z,8.14
2018-04-18T06:15:42.868Z,8.13
2018-04-18T06:16:48.557Z,8.07
2018-04-18T06:17:54.730Z,8.06
2018-04-18T06:19:01.401Z,8.03
2018-04-18T06:20:07.606Z,8.09
2018-04-18T06:21:13.777Z,8.10
2018-04-18T06:22:19.975Z,8.17
2018-04-18T06:23:25.664Z,8.16
2018-04-18T06:24:32.411Z,8.19
2018-04-18T06:25:38.030Z,8.18
2018-04-18T06:26:44.723Z,8.20
2018-04-18T06:27:50.917Z,8.22
2018-04-18T06:28:56.607Z,8.26
2018-04-18T06:30:02.824Z,8.26
2018-04-18T06:31:09.955Z,8.43
2018-04-18T06:32:15.681Z,8.62
2018-04-18T06:33:21.875Z,8.62
2018-04-18T06:34:27.591Z,8.70
2018-04-18T06:35:34.313Z,8.86
2018-04-18T06:36:39.984Z,9.08
2018-04-18T06:37:46.686Z,9.25
2018-04-18T06:38:52.875Z,9.25
2018-04-18T06:39:59.125Z,9.19
2018-04-18T06:41:05.303Z,9.13
2018-04-18T06:42:11.515Z,9.13
2018-04-18T06:43:17.204Z,9.19
2018-04-18T06:44:23.908Z,9.22
2018-04-18T06:45:31.131Z,9.28
2018-04-18T06:46:36.375Z,9.31
2018-04-18T06:47:42.070Z,9.45
2018-04-18T06:48:48.767Z,9.52
2018-04-18T06:49:54.506Z,9.56
2018-04-18T06:51:01.210Z,9.66
2018-04-18T06:52:07.410Z,9.74
2018-04-18T06:53:13.145Z,9.92
2018-04-18T06:54:19.877Z,10.17
2018-04-18T06:55:25.615Z,10.30
2018-04-18T06:56:32.375Z,10.44
2018-04-18T06:57:38.532Z,10.61
2018-04-18T06:58:44.768Z,10.86
2018-04-18T06:59:50.530Z,11.10
2018-04-18T07:00:57.221Z,11.15
2018-04-18T07:02:03.454Z,11.16
2018-04-18T07:03:09.695Z,11.19
2018-04-18T07:04:15.444Z,11.31
2018-04-18T07:05:23.185Z,11.26
2018-04-18T07:06:28.421Z,11.33
2018-04-18T07:07:34.677Z,11.38
2018-04-18T07:08:40.921Z,11.45
2018-04-18T07:09:47.170Z,11.44
2018-04-18T07:10:52.909Z,11.38
2018-04-18T07:11:59.663Z,11.31
2018-04-18T07:13:05.905Z,11.39
2018-04-18T07:14:12.158Z,11.51
2018-04-18T07:15:18.437Z,11.59
2018-04-18T07:16:24.670Z,11.59
2018-04-18T07:17:30.450Z,11.62
2018-04-18T07:18:37.197Z,11.69
2018-04-18T07:19:43.495Z,11.76
2018-04-18T07:20:49.251Z,11.84
2018-04-18T07:21:55.505Z,11.97
2018-04-18T07:23:01.764Z,12.05
2018-04-18T07:24:08.026Z,12.10
2018-04-18T07:25:14.402Z,12.27
2018-04-18T07:26:20.576Z,12.49
2018-04-18T07:27:27.047Z,12.57
2018-04-18T07:28:33.147Z,12.71
2018-04-18T07:29:39.911Z,12.87
2018-04-18T07:30:45.722Z,12.95
2018-04-18T07:31:52.493Z,12.97
2018-04-18T07:32:58.782Z,12.97
2018-04-18T07:34:04.590Z,13.02
2018-04-18T07:35:11.411Z,13.07
2018-04-18T07:36:17.203Z,13.11
2018-04-18T07:37:23.997Z,13.18
2018-04-18T07:38:30.384Z,13.25
2018-04-18T07:39:36.106Z,13.33
2018-04-18T07:40:42.959Z,13.40
2018-04-18T07:41:49.229Z,13.46
2018-04-18T07:42:55.062Z,13.57
2018-04-18T07:44:01.387Z,13.64
2018-04-18T07:45:08.206Z,13.72
2018-04-18T07:46:14.014Z,13.75
2018-04-18T07:47:20.831Z,13.82
2018-04-18T07:48:27.147Z,13.89
2018-04-18T07:49:33.481Z,13.94
2018-04-18T07:50:39.867Z,14.03
2018-04-18T07:51:46.123Z,14.10
2018-04-18T07:52:51.948Z,14.19
2018-04-18T07:53:58.389Z,14.23
2018-04-18T07:55:04.650Z,14.31
2018-04-18T07:56:10.933Z,14.37
2018-04-18T07:57:17.259Z,14.44
2018-04-18T07:58:24.091Z,14.54
2018-04-18T07:59:29.921Z,14.63
2018-04-18T08:00:36.287Z,14.79
2018-04-18T08:01:42.582Z,14.90
2018-04-18T08:02:49.408Z,14.98
2018-04-18T08:03:55.259Z,15.08
2018-04-18T08:05:02.108Z,15.22
2018-04-18T08:06:08.456Z,15.33
2018-04-18T08:07:14.385Z,15.46
2018-04-18T08:08:21.132Z,15.53
2018-04-18T08:09:26.980Z,15.57
2018-04-18T08:10:33.863Z,15.60
2018-04-18T08:11:39.706Z,15.71
2018-04-18T08:12:46.100Z,15.81
2018-04-18T08:13:52.422Z,15.89
2018-04-18T08:14:59.313Z,15.93
2018-04-18T08:16:05.672Z,16.04
2018-04-18T08:17:11.566Z,16.15
2018-04-18T08:18:17.929Z,16.20
2018-04-18T08:19:24.815Z,16.27
2018-04-18T08:20:30.709Z,16.31
2018-04-18T08:21:37.084Z,16.39
2018-04-18T08:22:43.474Z,16.44
2018-04-18T08:23:50.378Z,16.50
2018-04-18T08:24:56.737Z,16.57
2018-04-18T08:26:03.171Z,16.63
2018-04-18T08:27:09.539Z,16.65
2018-04-18T08:28:15.445Z,16.65
2018-04-18T08:29:21.843Z,16.64
2018-04-18T08:30:28.772Z,16.68
2018-04-18T08:31:34.663Z,16.71
2018-04-18T08:32:41.569Z,16.77
2018-04-18T08:33:47.983Z,16.76
2018-04-18T08:34:54.400Z,16.82
2018-04-18T08:36:00.417Z,16.85
2018-04-18T08:37:06.745Z,16.80
2018-04-18T08:38:13.148Z,16.71
2018-04-18T08:39:19.576Z,16.77
2018-04-18T08:40:26.516Z,16.90
2018-04-18T08:41:32.445Z,16.93
2018-04-18T08:42:38.867Z,16.96
2018-04-18T08:43:45.802Z,16.96
2018-04-18T08:44:52.224Z,16.99
2018-04-18T08:45:58.692Z,17.09
2018-04-18T08:47:04.622Z,17.20
2018-04-18T08:48:11.053Z,17.31
2018-04-18T08:49:17.987Z,17.46
2018-04-18T08:50:23.972Z,17.48
2018-04-18T08:51:30.396Z,17.52
2018-04-18T08:52:36.849Z,17.53
2018-04-18T08:53:43.292Z,17.56
2018-04-18T08:54:50.239Z,17.47
2018-04-18T08:55:56.228Z,17.46
2018-04-18T08:57:03.164Z,17.44
2018-04-18T08:58:09.638Z,17.54
2018-04-18T08:59:15.605Z,17.57
2018-04-18T09:00:22.084Z,17.70
2018-04-18T09:01:29.037Z,17.83
2018-04-18T09:02:35.501Z,17.87
2018-04-18T09:03:41.476Z,17.94
2018-04-18T09:04:47.941Z,17.96
2018-04-18T09:05:54.935Z,18.02
2018-04-18T09:07:00.899Z,18.02
2018-04-18T09:08:07.371Z,18.01
2018-04-18T09:09:13.858Z,18.03
2018-04-18T09:10:20.859Z,18.11
2018-04-18T09:11:27.306Z,18.19
2018-04-18T09:12:33.788Z,18.21
2018-04-18T09:13:40.379Z,18.24
2018-04-18T09:14:46.768Z,18.25
2018-04-18T09:15:53.286Z,18.18
2018-04-18T09:16:59.277Z,18.09
2018-04-18T09:18:05.766Z,18.25
2018-04-18T09:19:12.744Z,18.40
2018-04-18T09:20:18.768Z,18.45
2018-04-18T09:21:25.738Z,18.45
2018-04-18T09:22:31.754Z,18.58
2018-04-18T09:23:38.261Z,18.55
2018-04-18T09:24:45.247Z,18.53
2018-04-18T09:25:51.283Z,18.61
2018-04-18T09:26:57.779Z,18.75
2018-04-18T09:28:04.377Z,18.80
2018-04-18T09:29:10.784Z,18.80
2018-04-18T09:30:17.326Z,18.82
2018-04-18T09:31:24.389Z,18.85
2018-04-18T09:32:30.324Z,18.93
2018-04-18T09:33:37.384Z,19.07
2018-04-18T09:34:43.363Z,19.18
2018-04-18T09:35:50.895Z,19.22
2018-04-18T09:36:56.903Z,19.22
2018-04-18T09:38:02.923Z,19.28
2018-04-18T09:39:09.449Z,19.31
2018-04-18T09:40:15.976Z,19.26
2018-04-18T09:41:23.020Z,19.22
2018-04-18T09:42:29.547Z,19.32
2018-04-18T09:43:36.057Z,19.43
2018-04-18T09:44:42.101Z,19.49
2018-04-18T09:45:48.662Z,19.48
2018-04-18T09:46:55.677Z,19.45
2018-04-18T09:48:02.205Z,19.44
2018-04-18T09:49:08.257Z,19.51
2018-04-18T09:50:15.292Z,19.60
2018-04-18T09:51:21.369Z,19.75
2018-04-18T09:52:27.898Z,19.80
2018-04-18T09:53:35.931Z,19.84
2018-04-18T09:54:41.496Z,19.87
2018-04-18T09:55:47.569Z,19.84
2018-04-18T09:56:54.101Z,19.83
2018-04-18T09:58:01.138Z,19.80
2018-04-18T09:59:07.701Z,19.88
2018-04-18T10:00:14.259Z,19.97
2018-04-18T10:01:20.418Z,19.96
2018-04-18T10:02:26.875Z,19.97
2018-04-18T10:03:33.433Z,20.01
2018-04-18T10:04:39.997Z,20.09
2018-04-18T10:05:46.592Z,20.12
2018-04-18T10:06:53.151Z,20.14
2018-04-18T10:07:59.722Z,20.20
2018-04-18T10:09:06.376Z,20.24
2018-04-18T10:10:13.348Z,20.27
2018-04-18T10:11:19.953Z,20.24
2018-04-18T10:12:26.020Z,20.30
2018-04-18T10:13:32.581Z,20.33
2018-04-18T10:14:39.151Z,20.35
2018-04-18T10:15:45.767Z,20.45
2018-04-18T10:16:53.325Z,20.59
2018-04-18T10:17:59.402Z,20.68
2018-04-18T10:19:05.482Z,20.75
2018-04-18T10:20:12.069Z,20.85
2018-04-18T10:21:18.886Z,20.93
2018-04-18T10:22:25.274Z,20.87
2018-04-18T10:23:31.841Z,20.81
2018-04-18T10:24:38.920Z,20.82
2018-04-18T10:25:45.056Z,20.87
2018-04-18T10:26:51.621Z,20.95
2018-04-18T10:27:58.218Z,21.05
2018-04-18T10:29:04.832Z,21.10
2018-04-18T10:30:11.904Z,21.16
2018-04-18T10:31:18.530Z,21.18
2018-04-18T10:32:25.113Z,21.15
2018-04-18T10:33:31.741Z,21.20
2018-04-18T10:34:38.376Z,21.30
2018-04-18T10:35:44.466Z,21.37
2018-04-18T10:36:51.051Z,21.39
2018-04-18T10:37:57.675Z,21.51
2018-04-18T10:39:04.375Z,21.65
2018-04-18T10:40:11.401Z,21.68
2018-04-18T10:41:17.537Z,21.70
2018-04-18T10:42:25.626Z,21.71
2018-04-18T10:43:30.760Z,21.74
2018-04-18T10:44:37.384Z,21.81
2018-04-18T10:45:44.556Z,21.90
2018-04-18T10:46:50.652Z,21.97
2018-04-18T10:47:57.772Z,22.02
2018-04-18T10:49:03.896Z,22.03
2018-04-18T10:50:10.516Z,22.06
2018-04-18T10:51:17.675Z,22.11
2018-04-18T10:52:23.784Z,22.12
2018-04-18T10:53:30.423Z,22.00
2018-04-18T10:54:37.553Z,21.92
2018-04-18T10:55:43.724Z,21.91
2018-04-18T10:56:50.369Z,21.94
2018-04-18T10:57:56.992Z,21.98
2018-04-18T10:59:03.622Z,22.03
2018-04-18T11:00:10.766Z,22.10
2018-04-18T11:01:17.439Z,22.12
2018-04-18T11:02:24.582Z,22.22
2018-04-18T11:03:31.172Z,22.28
2018-04-18T11:04:36.870Z,22.24
2018-04-18T11:05:44.012Z,22.27
2018-04-18T11:06:50.190Z,22.30
2018-04-18T11:07:57.331Z,22.30
2018-04-18T11:09:03.486Z,22.28
2018-04-18T11:10:10.147Z,22.32
2018-04-18T11:11:16.828Z,22.39
2018-04-18T11:12:23.475Z,22.49
2018-04-18T11:13:30.125Z,22.58
2018-04-18T11:14:36.795Z,22.63
2018-04-18T11:15:43.477Z,22.65
2018-04-18T11:16:50.682Z,22.69
2018-04-18T11:17:56.886Z,22.75
2018-04-18T11:19:03.666Z,22.82
2018-04-18T11:20:10.515Z,22.80
2018-04-18T11:21:17.429Z,22.79
2018-04-18T11:22:24.359Z,22.87
2018-04-18T11:23:31.336Z,22.89
2018-04-18T11:24:39.361Z,22.95
2018-04-18T11:25:45.437Z,23.00
2018-04-18T11:26:52.572Z,23.07
2018-04-18T11:27:59.685Z,23.01
2018-04-18T11:29:06.880Z,22.97
2018-04-18T11:30:15.036Z,23.00
2018-04-18T11:31:21.311Z,22.96
2018-04-18T11:32:28.548Z,22.89
2018-04-18T11:33:35.847Z,22.91
2018-04-18T11:34:43.168Z,23.06
2018-04-18T11:35:50.503Z,23.20
2018-04-18T11:36:58.398Z,23.29
2018-04-18T11:38:05.246Z,23.35
2018-04-18T11:39:12.643Z,23.47
2018-04-18T11:40:20.068Z,23.56
2018-04-18T11:41:27.527Z,23.55
2018-04-18T11:42:34.973Z,23.59
2018-04-18T11:43:42.949Z,23.59
2018-04-18T11:44:50.447Z,23.51
2018-04-18T11:45:57.500Z,23.44
2018-04-18T11:47:05.474Z,23.44
2018-04-18T11:48:12.517Z,23.52
2018-04-18T11:49:20.062Z,23.60
2018-04-18T11:50:27.635Z,23.71
2018-04-18T11:51:35.739Z,23.84
2018-04-18T11:52:42.807Z,23.91
2018-04-18T11:53:50.408Z,23.86
2018-04-18T11:54:58.521Z,23.75
2018-04-18T11:56:05.680Z,23.77
2018-04-18T11:57:13.295Z,23.88
2018-04-18T11:58:20.947Z,24.00
2018-04-18T11:59:29.098Z,24.03
2018-04-18T12:00:36.271Z,23.99
2018-04-18T12:01:43.968Z,23.94
2018-04-18T12:02:51.627Z,23.81
2018-04-18T12:03:59.310Z,23.73
2018-04-18T12:05:08.024Z,23.88
2018-04-18T12:06:14.750Z,23.91
2018-04-18T12:07:22.443Z,23.91
2018-04-18T12:08:30.175Z,23.94
2018-04-18T12:09:38.393Z,23.98
2018-04-18T12:10:45.639Z,24.05
2018-04-18T12:11:53.911Z,24.18
2018-04-18T12:13:01.141Z,24.36
2018-04-18T12:14:08.913Z,24.32
2018-04-18T12:15:16.674Z,24.30
2018-04-18T12:16:24.484Z,24.41
2018-04-18T12:17:32.720Z,24.63
2018-04-18T12:18:40.016Z,24.70
2018-04-18T12:19:47.786Z,24.68
2018-04-18T12:20:55.573Z,24.60
2018-04-18T12:22:03.384Z,24.57
2018-04-18T12:23:11.151Z,24.50
2018-04-18T12:24:19.449Z,24.32
2018-04-18T12:25:26.742Z,24.20
2018-04-18T12:26:34.551Z,24.13
2018-04-18T12:27:42.350Z,24.02
2018-04-18T12:28:50.134Z,24.11
2018-04-18T12:29:57.929Z,24.15
2018-04-18T12:31:05.741Z,24.26
2018-04-18T12:32:13.571Z,24.29
2018-04-18T12:33:22.400Z,24.33
2018-04-18T12:34:29.178Z,24.39
2018-04-18T12:35:37.450Z,24.46
2018-04-18T12:36:44.794Z,24.52
2018-04-18T12:37:52.582Z,24.62
2018-04-18T12:39:00.397Z,24.81
2018-04-18T12:40:08.719Z,25.01
2018-04-18T12:41:16.044Z,25.11
2018-04-18T12:42:24.400Z,25.14
2018-04-18T12:43:31.698Z,25.12
2018-04-18T12:44:39.519Z,25.11
2018-04-18T12:45:48.826Z,25.06
2018-04-18T12:46:55.208Z,24.99
2018-04-18T12:48:03.202Z,24.96
2018-04-18T12:49:10.822Z,25.09
2018-04-18T12:50:18.640Z,25.21
2018-04-18T12:51:26.506Z,25.17
2018-04-18T12:52:34.770Z,25.21
2018-04-18T12:53:42.149Z,25.18
2018-04-18T12:54:49.991Z,25.19
2018-04-18T12:55:57.817Z,25.19
2018-04-18T12:57:05.709Z,25.36
2018-04-18T12:58:13.521Z,25.62
2018-04-18T12:59:21.877Z,25.70
2018-04-18T13:00:29.751Z,25.70
2018-04-18T13:01:37.146Z,25.68
2018-04-18T13:02:45.519Z,25.71
2018-04-18T13:03:52.933Z,25.77
2018-04-18T13:05:01.350Z,25.81
2018-04-18T13:06:08.783Z,25.89
2018-04-18T13:07:17.247Z,25.91
2018-04-18T13:08:24.714Z,25.99
2018-04-18T13:09:32.704Z,26.02
2018-04-18T13:10:40.723Z,26.09
2018-04-18T13:11:48.724Z,26.13
2018-04-18T13:12:57.222Z,25.98
2018-04-18T13:14:04.739Z,25.99
2018-04-18T13:15:12.760Z,26.04
2018-04-18T13:16:20.776Z,26.09
2018-04-18T13:17:29.051Z,26.18
2018-04-18T13:18:36.989Z,26.21
2018-04-18T13:19:45.287Z,26.34
2018-04-18T13:20:53.264Z,26.37
2018-04-18T13:22:00.773Z,26.28
2018-04-18T13:23:09.204Z,26.42
2018-04-18T13:24:16.663Z,26.47
2018-04-18T13:25:24.675Z,26.33
2018-04-18T13:26:33.065Z,26.51
2018-04-18T13:27:40.503Z,26.54
2018-04-18T13:28:48.439Z,26.56
2018-04-18T13:29:56.353Z,26.52
2018-04-18T13:31:04.780Z,26.53
2018-04-18T13:32:12.196Z,26.52
2018-04-18T13:33:20.081Z,26.49
2018-04-18T13:34:27.973Z,26.52
2018-04-18T13:35:36.373Z,26.57
2018-04-18T13:36:44.773Z,26.62
2018-04-18T13:37:51.691Z,26.61
2018-04-18T13:38:59.511Z,26.70
2018-04-18T13:40:07.700Z,26.71
2018-04-18T13:41:15.773Z,26.67
2018-04-18T13:42:23.181Z,26.68
2018-04-18T13:43:31.523Z,26.74
2018-04-18T13:44:38.906Z,26.81
2018-04-18T13:45:46.783Z,26.88
2018-04-18T13:46:54.692Z,26.94
2018-04-18T13:48:02.563Z,27.06
2018-04-18T13:49:10.413Z,27.10
2018-04-18T13:50:18.766Z,27.11
2018-04-18T13:51:26.652Z,26.99
2018-04-18T13:52:34.048Z,26.77
2018-04-18T13:53:42.414Z,26.45
2018-04-18T13:54:50.801Z,26.14
2018-04-18T13:55:57.650Z,25.87
2018-04-18T13:57:06.027Z,25.86
2018-04-18T13:58:13.883Z,25.77
2018-04-18T13:59:21.226Z,25.82
2018-04-18T14:00:29.073Z,25.85
2018-04-18T14:01:37.951Z,25.82
2018-04-18T14:02:44.759Z,25.95
2018-04-18T14:03:53.602Z,26.14
2018-04-18T14:05:00.440Z,26.10
2018-04-18T14:06:08.376Z,26.22
2018-04-18T14:07:16.355Z,26.36
2018-04-18T14:08:24.491Z,26.23
2018-04-18T14:09:31.833Z,26.27
2018-04-18T14:10:39.682Z,26.28
2018-04-18T14:11:48.054Z,26.43
2018-04-18T14:12:55.881Z,26.66
2018-04-18T14:14:03.234Z,26.95
2018-04-18T14:15:11.119Z,27.17
2018-04-18T14:16:18.914Z,27.34
2018-04-18T14:17:27.269Z,27.47
2018-04-18T14:18:34.614Z,27.40
2018-04-18T14:19:42.418Z,27.55
2018-04-18T14:20:50.271Z,27.39
2018-04-18T14:21:58.120Z,27.05
2018-04-18T14:23:05.939Z,26.94
2018-04-18T14:24:13.777Z,27.09
2018-04-18T14:25:21.612Z,27.26
2018-04-18T14:26:29.463Z,27.46
2018-04-18T14:27:37.807Z,27.58
2018-04-18T14:28:45.137Z,27.62
2018-04-18T14:29:53.442Z,27.64
2018-04-18T14:31:00.784Z,27.66
2018-04-18T14:32:08.656Z,27.73